Time;durP1;ratioP1;P1;durP2;ratioP2;P2;SDS_P1;SDS_P2;PMS_P1;PMS_P2;Temp;Humidity;BMP_temperature;BMP_pressure;BME280_temperature;BME280_humidity;BME280_pressure;Samples;Min_cycle;Max_cycle;Signal;HPM_P1;HPM_P2
2022/12/04 00:00:15;;;;;;;35.63;19.58;;;1.10;99.90;;;;;;5113911;28;20123;-62
2022/12/04 00:02:41;;;;;;;35.00;17.05;;;1.10;99.90;;;;;;5095230;28;20430;-61
2022/12/04 00:05:08;;;;;;;35.40;17.70;;;1.10;99.90;;;;;;5113569;28;20077;-62
2022/12/04 00:07:34;;;;;;;32.65;16.95;;;1.20;99.90;;;;;;5113476;28;20044;-62
2022/12/04 00:10:01;;;;;;;30.48;17.75;;;1.20;99.90;;;;;;5095226;28;20096;-61
2022/12/04 00:12:27;;;;;;;28.92;17.08;;;1.20;99.90;;;;;;5095536;28;20505;-62
2022/12/04 00:14:52;;;;;;;30.77;17.08;;;1.20;99.90;;;;;;5113334;28;20031;-62
2022/12/04 00:17:18;;;;;;;31.75;17.25;;;1.20;99.90;;;;;;5113544;28;20031;-62
2022/12/04 00:19:44;;;;;;;27.17;16.38;;;1.20;99.90;;;;;;5113308;28;20393;-61
2022/12/04 00:22:09;;;;;;;34.88;16.02;;;1.10;99.90;;;;;;5113515;28;20031;-61
2022/12/04 00:24:35;;;;;;;36.25;18.38;;;1.20;99.90;;;;;;5093237;28;20039;-61
2022/12/04 00:27:01;;;;;;;32.35;18.38;;;1.20;99.90;;;;;;5111273;28;20031;-62
2022/12/04 00:29:27;;;;;;;32.92;16.95;;;1.20;99.90;;;;;;5094915;28;20402;-62
2022/12/04 00:31:53;;;;;;;34.28;17.30;;;1.10;99.90;;;;;;5113266;28;20043;-61
2022/12/04 00:34:18;;;;;;;33.08;16.67;;;1.10;99.90;;;;;;5112854;28;20148;-61
2022/12/04 00:36:44;;;;;;;32.17;17.80;;;1.10;99.90;;;;;;5112984;28;20032;-61
2022/12/04 00:39:10;;;;;;;32.05;17.13;;;1.10;99.90;;;;;;5113069;28;20499;-62
2022/12/04 00:41:35;;;;;;;30.67;17.65;;;1.10;99.90;;;;;;5093804;28;20062;-62
2022/12/04 00:44:02;;;;;;;34.67;17.52;;;1.10;99.90;;;;;;5112942;28;20047;-61
2022/12/04 00:46:28;;;;;;;33.95;18.20;;;1.10;99.90;;;;;;5112785;28;20500;-62
2022/12/04 00:48:54;;;;;;;30.50;17.08;;;1.10;99.90;;;;;;5112817;28;20039;-62
2022/12/04 00:51:23;;;;;;;33.08;17.30;;;1.10;99.90;;;;;;5093779;28;20063;-62
2022/12/04 00:53:50;;;;;;;35.95;18.73;;;1.40;99.90;;;;;;5111295;28;20071;-62
2022/12/04 00:56:22;;;;;;;35.80;18.13;;;1.00;99.90;;;;;;5110815;28;20104;-61
2022/12/04 00:58:52;;;;;;;37.70;18.20;;;1.00;99.90;;;;;;5112022;28;20436;-62
2022/12/04 01:01:19;;;;;;;37.90;19.77;;;1.00;99.90;;;;;;5112572;28;20132;-61
2022/12/04 01:03:46;;;;;;;36.40;18.42;;;1.00;99.90;;;;;;5112463;28;20093;-61
2022/12/04 01:06:29;;;;;;;37.20;18.52;;;1.00;99.90;;;;;;5112752;28;20032;-62
2022/12/04 01:08:57;;;;;;;37.22;19.45;;;0.90;99.90;;;;;;5112671;28;20385;-62
2022/12/04 01:11:24;;;;;;;35.95;18.13;;;0.90;99.90;;;;;;5094322;28;20036;-63
2022/12/04 01:13:50;;;;;;;40.30;18.70;;;0.90;99.90;;;;;;5094474;28;20128;-63
2022/12/04 01:16:21;;;;;;;35.30;20.05;;;0.80;99.90;;;;;;5112419;28;20078;-62
2022/12/04 01:18:47;;;;;;;34.55;18.77;;;0.80;99.90;;;;;;5112343;28;20054;-62
2022/12/04 01:21:13;;;;;;;36.75;18.73;;;0.70;99.90;;;;;;5112465;28;20062;-62
2022/12/04 01:23:39;;;;;;;34.22;18.45;;;0.70;99.90;;;;;;5112049;28;20063;-61
2022/12/04 01:26:05;;;;;;;40.03;20.80;;;0.70;99.90;;;;;;5112449;28;20039;-62
2022/12/04 01:28:31;;;;;;;42.45;18.77;;;0.60;99.90;;;;;;5112733;28;20381;-61
2022/12/04 01:31:05;;;;;;;40.95;18.52;;;0.60;99.90;;;;;;5112375;28;20047;-61
2022/12/04 01:33:32;;;;;;;36.00;19.95;;;0.60;99.90;;;;;;5112615;28;20110;-62
2022/12/04 01:36:00;;;;;;;40.25;19.88;;;0.60;99.90;;;;;;5112204;28;20040;-62
2022/12/04 01:38:26;;;;;;;37.88;20.33;;;0.60;99.90;;;;;;5112460;28;20924;-62
2022/12/04 01:40:52;;;;;;;39.53;20.65;;;0.60;99.90;;;;;;5111951;28;20059;-62
2022/12/04 01:43:18;;;;;;;41.15;19.88;;;0.60;99.90;;;;;;5112084;28;20051;-61
2022/12/04 01:45:46;;;;;;;40.47;20.65;;;0.50;99.90;;;;;;5112439;28;20076;-62
2022/12/04 01:48:34;;;;;;;40.65;20.73;;;0.60;99.90;;;;;;5112147;28;20036;-61
2022/12/04 01:51:02;;;;;;;41.28;20.80;;;0.60;99.90;;;;;;5112061;28;20043;-61
2022/12/04 01:53:29;;;;;;;40.10;20.23;;;0.60;99.90;;;;;;5112351;28;20050;-62
2022/12/04 01:55:56;;;;;;;39.50;21.20;;;0.60;99.90;;;;;;5112675;28;20046;-62
2022/12/04 01:58:27;;;;;;;41.15;20.70;;;0.60;99.90;;;;;;5112416;28;20032;-61
2022/12/04 02:00:57;;;;;;;40.60;21.00;;;0.60;99.90;;;;;;5093880;28;20040;-61
2022/12/04 02:03:22;;;;;;;38.13;21.27;;;0.60;99.90;;;;;;5114998;28;20119;-61
2022/12/04 02:05:48;;;;;;;45.08;22.80;;;0.60;99.90;;;;;;5115833;28;20119;-60
2022/12/04 02:08:14;;;;;;;38.38;20.85;;;0.60;99.90;;;;;;5096875;28;20051;-61
2022/12/04 02:10:54;;;;;;;45.95;21.38;;;0.60;99.90;;;;;;5115785;28;20039;-61
2022/12/04 02:13:30;;;;;;;39.65;20.92;;;0.60;99.90;;;;;;5115826;28;20118;-62
2022/12/04 02:16:07;;;;;;;40.10;21.15;;;0.60;99.90;;;;;;5115637;28;20039;-61
2022/12/04 02:19:01;;;;;;;37.47;19.85;;;0.60;99.90;;;;;;5115518;28;20894;-62
2022/12/04 02:21:37;;;;;;;40.80;21.55;;;0.60;99.90;;;;;;5013081;28;20054;-61
2022/12/04 02:24:36;;;;;;;44.17;20.98;;;0.60;99.90;;;;;;5013060;28;20508;-62
2022/12/04 02:27:13;;;;;;;44.25;22.13;;;0.60;99.90;;;;;;5013074;28;20054;-61
2022/12/04 02:29:53;;;;;;;41.72;23.05;;;0.60;99.90;;;;;;5012962;28;20053;-63
2022/12/04 02:32:26;;;;;;;41.15;22.70;;;0.60;99.90;;;;;;5013168;28;20064;-61
2022/12/04 02:34:55;;;;;;;38.83;20.77;;;0.50;99.90;;;;;;5012765;28;20046;-62
2022/12/04 02:37:37;;;;;;;41.35;20.98;;;0.50;99.90;;;;;;5012721;28;20042;-62
2022/12/04 02:40:08;;;;;;;46.83;23.30;;;0.60;99.90;;;;;;5012748;28;20468;-61
2022/12/04 02:42:58;;;;;;;44.63;22.88;;;0.60;99.90;;;;;;5012639;28;20061;-62
2022/12/04 02:45:29;;;;;;;41.35;22.23;;;0.60;99.90;;;;;;5012703;28;20046;-61
2022/12/04 02:47:55;;;;;;;44.47;22.20;;;0.60;99.90;;;;;;5012634;28;20050;-61
2022/12/04 02:50:23;;;;;;;44.20;23.90;;;0.60;99.90;;;;;;5012503;28;20137;-61
2022/12/04 02:53:04;;;;;;;43.17;23.08;;;0.60;99.90;;;;;;5012618;28;20061;-61
2022/12/04 02:55:41;;;;;;;42.85;22.88;;;0.60;99.90;;;;;;5012473;28;20046;-61
2022/12/04 02:58:13;;;;;;;47.90;25.02;;;0.60;99.90;;;;;;5043703;28;20047;-61
2022/12/04 03:00:41;;;;;;;48.63;25.58;;;0.60;99.90;;;;;;5094631;28;20040;-61
2022/12/04 03:03:17;;;;;;;47.60;25.43;;;0.50;99.90;;;;;;5093506;28;20048;-61
2022/12/04 03:06:09;;;;;;;49.88;26.35;;;0.50;99.90;;;;;;5094290;28;20123;-61
2022/12/04 03:08:46;;;;;;;51.58;27.55;;;0.50;99.90;;;;;;5094566;28;20206;-61
2022/12/04 03:11:15;;;;;;;52.05;26.90;;;0.50;99.90;;;;;;5093183;28;20051;-61
2022/12/04 03:13:46;;;;;;;53.30;27.30;;;0.60;99.90;;;;;;5093797;28;20032;-60
2022/12/04 03:16:17;;;;;;;51.15;26.83;;;0.50;99.90;;;;;;5094204;28;20119;-61
2022/12/04 03:18:53;;;;;;;51.75;27.90;;;0.50;99.90;;;;;;5094295;28;20485;-62
2022/12/04 03:21:23;;;;;;;51.78;27.05;;;0.50;99.90;;;;;;5094435;28;20047;-61
2022/12/04 03:24:24;;;;;;;50.33;26.70;;;0.50;99.90;;;;;;5094157;28;20076;-61
2022/12/04 03:27:07;;;;;;;54.70;28.23;;;0.50;99.90;;;;;;5093876;28;20044;-61
2022/12/04 03:29:37;;;;;;;48.45;26.02;;;0.50;99.90;;;;;;5094019;28;20047;-61
2022/12/04 03:32:12;;;;;;;62.00;28.55;;;0.50;99.90;;;;;;5092441;28;20087;-61
2022/12/04 03:35:07;;;;;;;53.05;28.42;;;0.60;99.90;;;;;;5093958;28;20036;-61
2022/12/04 03:37:36;;;;;;;52.17;27.10;;;0.50;99.90;;;;;;5089676;28;20071;-60
2022/12/04 03:40:16;;;;;;;52.05;27.48;;;0.50;99.90;;;;;;5093831;28;20068;-61
2022/12/04 03:42:47;;;;;;;52.38;27.83;;;0.50;99.90;;;;;;5105937;28;20095;-61
2022/12/04 03:45:29;;;;;;;53.60;27.65;;;0.50;99.90;;;;;;5113988;28;20493;-61
2022/12/04 03:48:04;;;;;;;52.30;28.83;;;0.50;99.90;;;;;;5114146;28;20043;-62
2022/12/04 03:50:46;;;;;;;53.10;27.30;;;0.50;99.90;;;;;;5095609;28;20048;-63
2022/12/04 03:53:28;;;;;;;56.10;28.58;;;0.50;99.90;;;;;;5114125;28;20046;-62
2022/12/04 03:56:08;;;;;;;57.17;29.70;;;0.50;99.90;;;;;;5113839;28;20036;-62
2022/12/04 03:58:36;;;;;;;;;;;0.50;99.90;;;;;;5114000;28;20035;-62
2022/12/04 04:01:05;;;;;;;54.38;28.27;;;0.50;99.90;;;;;;5113901;28;19961;-62
2022/12/04 04:03:38;;;;;;;59.33;29.95;;;0.50;99.90;;;;;;5113908;28;20048;-63
2022/12/04 04:06:10;;;;;;;55.15;28.67;;;0.50;99.90;;;;;;5113708;28;20114;-62
2022/12/04 04:08:39;;;;;;;50.67;27.27;;;0.50;99.90;;;;;;5095646;28;20054;-62
2022/12/04 04:11:17;;;;;;;58.28;28.83;;;0.40;99.90;;;;;;5113729;28;20071;-62
2022/12/04 04:25:10;;;;;;;57.20;29.95;;;0.30;99.90;;;;;;5112994;28;20056;-62
2022/12/04 04:27:35;;;;;;;55.78;28.65;;;0.30;99.90;;;;;;5112628;28;20130;-62
2022/12/04 04:30:01;;;;;;;55.58;29.30;;;0.30;99.90;;;;;;5112978;28;20118;-62
2022/12/04 04:32:39;;;;;;;53.17;28.77;;;0.30;99.90;;;;;;5113119;28;20091;-62
2022/12/04 04:35:24;;;;;;;55.95;29.92;;;0.30;99.90;;;;;;5113336;28;20118;-63
2022/12/04 04:38:06;;;;;;;55.08;29.00;;;0.30;99.90;;;;;;5112825;28;20043;-62
2022/12/04 04:40:42;;;;;;;54.38;28.80;;;0.20;99.90;;;;;;5112982;28;20040;-62
2022/12/04 04:43:33;;;;;;;56.05;29.83;;;0.30;99.90;;;;;;5112878;28;20154;-62
2022/12/04 04:46:14;;;;;;;54.90;28.45;;;0.20;99.90;;;;;;5113112;28;20070;-62
2022/12/04 04:48:47;;;;;;;50.92;27.65;;;0.20;99.90;;;;;;5113253;28;20039;-62
2022/12/04 04:51:13;;;;;;;59.67;29.83;;;0.30;99.90;;;;;;5112842;28;20054;-62
2022/12/04 04:53:45;;;;;;;54.38;29.88;;;0.30;99.90;;;;;;5113026;28;20132;-63
2022/12/04 04:56:11;;;;;;;54.80;29.52;;;0.30;99.90;;;;;;5113082;28;20042;-62
2022/12/04 04:58:36;;;;;;;57.92;30.02;;;0.30;99.90;;;;;;5112627;28;20047;-62
2022/12/04 05:01:06;;;;;;;61.60;31.13;;;0.30;99.90;;;;;;5112920;28;20399;-62
2022/12/04 05:03:32;;;;;;;53.13;29.95;;;0.30;99.90;;;;;;5112792;28;20109;-62
2022/12/04 05:05:58;;;;;;;57.83;30.23;;;0.30;99.90;;;;;;5112842;28;20043;-62
2022/12/04 05:08:23;;;;;;;53.10;29.77;;;0.30;99.90;;;;;;5112862;28;20615;-62
2022/12/04 05:10:49;;;;;;;59.05;31.02;;;0.30;99.90;;;;;;5112571;28;20044;-62
2022/12/04 05:13:16;;;;;;;56.95;30.58;;;0.30;99.90;;;;;;5112302;28;20057;-62
2022/12/04 05:15:42;;;;;;;52.75;30.02;;;0.30;99.90;;;;;;5112820;28;20031;-62
2022/12/04 05:18:08;;;;;;;54.90;29.02;;;0.30;99.90;;;;;;5112780;28;20042;-61
2022/12/04 05:20:37;;;;;;;49.72;28.45;;;0.30;99.90;;;;;;5112582;28;20046;-62
2022/12/04 05:23:03;;;;;;;57.78;30.75;;;0.40;99.90;;;;;;5112615;28;20093;-62
2022/12/04 05:25:28;;;;;;;52.40;29.38;;;0.30;99.90;;;;;;5112389;28;20079;-61
2022/12/04 05:27:54;;;;;;;56.22;30.77;;;0.40;99.90;;;;;;5112337;28;20110;-62
2022/12/04 05:30:20;;;;;;;59.80;32.13;;;0.40;99.90;;;;;;5111887;28;20031;-62
2022/12/04 05:32:46;;;;;;;53.28;30.45;;;0.40;99.90;;;;;;5112688;28;20454;-62
2022/12/04 05:35:11;;;;;;;57.58;31.20;;;0.40;99.90;;;;;;5112163;28;20028;-62
2022/12/04 05:37:39;;;;;;;61.03;32.00;;;0.40;99.90;;;;;;5114239;28;20039;-63
2022/12/04 05:40:06;;;;;;;54.78;30.65;;;0.40;99.90;;;;;;5116482;28;20088;-62
2022/12/04 05:42:32;;;;;;;60.38;30.75;;;0.40;99.90;;;;;;5098004;28;20051;-62
2022/12/04 05:44:58;;;;;;;56.03;31.77;;;0.40;99.90;;;;;;5116548;28;20039;-62
2022/12/04 05:47:23;;;;;;;59.28;28.85;;;0.40;99.90;;;;;;5116489;28;20040;-62
2022/12/04 05:49:49;;;;;;;56.55;30.10;;;0.50;99.90;;;;;;5116368;28;20040;-62
2022/12/04 05:52:15;;;;;;;53.78;29.30;;;0.40;99.90;;;;;;5097836;28;20078;-62
2022/12/04 05:54:40;;;;;;;59.63;30.63;;;0.40;99.90;;;;;;5116317;28;20032;-61
2022/12/04 05:57:06;;;;;;;58.05;28.85;;;0.40;99.90;;;;;;5116328;28;20581;-61
2022/12/04 05:59:32;;;;;;;57.88;29.85;;;0.40;99.90;;;;;;5116317;28;20046;-62
2022/12/04 06:01:57;;;;;;;54.00;27.45;;;0.40;99.90;;;;;;5116217;28;20067;-62
2022/12/04 06:04:23;;;;;;;58.08;30.70;;;0.40;99.90;;;;;;5116206;28;20073;-61
2022/12/04 06:06:49;;;;;;;56.00;30.63;;;0.50;99.90;;;;;;5116042;28;20078;-62
2022/12/04 06:09:14;;;;;;;58.63;30.55;;;0.50;99.90;;;;;;5116063;28;20035;-63
2022/12/04 06:11:41;;;;;;;58.20;29.27;;;0.50;99.90;;;;;;5115757;28;20521;-62
2022/12/04 06:14:09;;;;;;;59.85;30.85;;;0.50;99.90;;;;;;5116038;28;20035;-61
2022/12/04 06:16:38;;;;;;;56.90;30.97;;;0.50;99.90;;;;;;5115928;28;20036;-61
2022/12/04 06:19:07;;;;;;;54.73;28.27;;;0.50;99.90;;;;;;5115932;28;20269;-61
2022/12/04 06:21:35;;;;;;;54.55;29.38;;;0.50;99.90;;;;;;5115955;28;20043;-62
2022/12/04 06:24:02;;;;;;;52.53;29.50;;;0.50;99.90;;;;;;5115827;28;20047;-62
2022/12/04 06:26:28;;;;;;;56.70;28.42;;;0.50;99.90;;;;;;5115659;28;20043;-62
2022/12/04 06:28:58;;;;;;;59.88;30.05;;;0.50;99.90;;;;;;5115464;28;20165;-62
2022/12/04 06:31:25;;;;;;;61.38;31.48;;;0.50;99.90;;;;;;5115741;28;20036;-62
2022/12/04 06:33:53;;;;;;;61.15;29.23;;;0.50;99.90;;;;;;5115598;28;20398;-62
2022/12/04 06:36:22;;;;;;;56.78;29.48;;;0.60;99.90;;;;;;5115535;28;20496;-61
2022/12/04 06:38:49;;;;;;;52.63;28.85;;;0.60;99.90;;;;;;5115302;28;20046;-61
2022/12/04 06:41:18;;;;;;;58.67;30.38;;;0.60;99.90;;;;;;5115506;28;20092;-62
2022/12/04 06:43:44;;;;;;;55.72;28.90;;;0.60;99.90;;;;;;5115483;28;20055;-62
2022/12/04 06:46:17;;;;;;;56.15;27.63;;;0.60;99.90;;;;;;5115363;28;20039;-62
2022/12/04 06:48:44;;;;;;;58.50;29.40;;;0.60;99.90;;;;;;5113968;28;20047;-61
2022/12/04 06:51:16;;;;;;;55.03;29.10;;;0.70;99.90;;;;;;5115127;28;20039;-62
2022/12/04 06:53:42;;;;;;;60.42;30.13;;;0.70;99.90;;;;;;5115258;28;20057;-62
2022/12/04 06:56:11;;;;;;;58.88;29.05;;;0.70;99.90;;;;;;5115254;28;20381;-62
2022/12/04 06:58:37;;;;;;;;;;;0.70;99.90;;;;;;5097494;28;20040;-62
2022/12/04 07:01:08;;;;;;;53.47;28.90;;;0.70;99.90;;;;;;5114922;28;20331;-62
2022/12/04 07:03:34;;;;;;;58.55;30.13;;;0.70;99.90;;;;;;5114994;28;20090;-62
2022/12/04 07:06:13;;;;;;;56.72;29.00;;;0.70;99.90;;;;;;5114800;28;20032;-61
2022/12/04 07:08:38;;;;;;;53.88;28.92;;;0.70;99.90;;;;;;5097418;28;20071;-61
2022/12/04 07:11:04;;;;;;;55.97;30.90;;;0.70;99.90;;;;;;5096237;28;20085;-61
2022/12/04 07:13:30;;;;;;;57.88;29.88;;;0.70;99.90;;;;;;5114577;28;20428;-60
2022/12/04 07:15:59;;;;;;;55.35;28.20;;;0.70;99.90;;;;;;5114645;28;20039;-61
2022/12/04 07:18:25;;;;;;;55.13;29.65;;;0.70;99.90;;;;;;5114504;28;20043;-61
2022/12/04 07:20:50;;;;;;;57.03;29.33;;;0.70;99.90;;;;;;5114388;28;20043;-61
2022/12/04 07:23:16;;;;;;;54.70;29.85;;;0.70;99.90;;;;;;5114442;28;20071;-61
2022/12/04 07:25:41;;;;;;;52.22;28.38;;;0.70;99.90;;;;;;5114309;28;20071;-61
2022/12/04 07:28:07;;;;;;;55.10;29.30;;;0.70;99.90;;;;;;5114565;28;20043;-62
2022/12/04 07:30:33;;;;;;;53.65;30.13;;;0.70;99.90;;;;;;5113974;28;20046;-61
2022/12/04 07:32:58;;;;;;;56.38;29.92;;;0.80;99.90;;;;;;5114428;28;20092;-62
2022/12/04 07:35:24;;;;;;;51.55;28.55;;;0.80;99.90;;;;;;5114288;28;20054;-62
2022/12/04 07:37:49;;;;;;;51.83;28.48;;;0.80;99.90;;;;;;5114092;28;20466;-62
2022/12/04 07:40:15;;;;;;;56.58;28.25;;;0.80;99.90;;;;;;5114251;28;20063;-62
2022/12/04 07:42:41;;;;;;;52.97;28.52;;;0.80;99.90;;;;;;5114061;28;20409;-62
2022/12/04 07:45:07;;;;;;;53.15;27.65;;;0.80;99.90;;;;;;5114085;28;20062;-62
2022/12/04 07:47:34;;;;;;;59.25;29.33;;;0.80;99.90;;;;;;5113928;28;20046;-61
2022/12/04 07:50:00;;;;;;;55.08;27.48;;;0.80;99.90;;;;;;5113850;28;20044;-61
2022/12/04 07:52:25;;;;;;;56.47;28.58;;;0.80;99.90;;;;;;5113959;28;20371;-62
2022/12/04 07:54:51;;;;;;;50.40;28.05;;;0.90;99.90;;;;;;5113737;28;20097;-62
2022/12/04 07:57:16;;;;;;;50.97;27.75;;;0.90;99.90;;;;;;5112055;28;20115;-62
2022/12/04 07:59:42;;;;;;;53.83;29.63;;;0.90;99.90;;;;;;5111402;28;20485;-61
2022/12/04 08:02:08;;;;;;;52.55;28.30;;;0.90;99.90;;;;;;5113427;28;20043;-61
2022/12/04 08:04:33;;;;;;;50.55;26.85;;;0.90;99.90;;;;;;5113696;28;20046;-62
2022/12/04 08:06:59;;;;;;;53.85;28.23;;;0.90;99.90;;;;;;5113456;28;20398;-61
2022/12/04 08:09:24;;;;;;;53.15;27.23;;;0.90;99.90;;;;;;5113871;28;20032;-61
2022/12/04 08:11:50;;;;;;;51.35;27.50;;;0.90;99.90;;;;;;5113556;28;20131;-61
2022/12/04 08:14:16;;;;;;;52.72;28.60;;;1.00;99.90;;;;;;5113378;28;20124;-61
2022/12/04 08:16:42;;;;;;;51.60;28.20;;;1.00;99.90;;;;;;5113186;28;20036;-61
2022/12/04 08:19:08;;;;;;;51.75;27.48;;;1.10;99.90;;;;;;5113396;28;20378;-62
2022/12/04 08:21:34;;;;;;;53.78;29.50;;;1.10;99.90;;;;;;5113524;28;20031;-61
2022/12/04 08:24:01;;;;;;;54.42;28.80;;;1.10;99.90;;;;;;5113393;28;20534;-62
2022/12/04 08:26:29;;;;;;;49.65;28.70;;;1.10;99.90;;;;;;5095302;28;20048;-62
2022/12/04 08:28:55;;;;;;;51.08;27.70;;;1.00;99.90;;;;;;5113216;28;20118;-61
2022/12/04 08:31:24;;;;;;;52.03;27.63;;;1.00;99.90;;;;;;5113180;28;20039;-61
2022/12/04 08:33:51;;;;;;;52.58;27.38;;;1.10;99.90;;;;;;5113252;28;20165;-61
2022/12/04 08:36:18;;;;;;;52.05;28.98;;;1.10;99.90;;;;;;5113166;28;20367;-62
2022/12/04 08:38:44;;;;;;;51.10;27.67;;;1.10;99.90;;;;;;5113409;28;20036;-62
2022/12/04 08:41:14;;;;;;;55.83;28.73;;;1.10;99.90;;;;;;5113147;28;20035;-61
2022/12/04 08:43:40;;;;;;;53.65;28.67;;;1.20;99.90;;;;;;5112967;28;20048;-62
2022/12/04 08:46:11;;;;;;;52.85;28.15;;;1.10;99.90;;;;;;5112848;28;20118;-61
2022/12/04 08:48:37;;;;;;;48.03;27.40;;;1.20;99.90;;;;;;5113097;28;20157;-62
2022/12/04 08:51:03;;;;;;;50.05;27.30;;;1.20;99.90;;;;;;5113033;28;20074;-62
2022/12/04 08:53:30;;;;;;;50.03;26.80;;;1.20;99.90;;;;;;5094427;28;20129;-63
2022/12/04 08:55:56;;;;;;;48.35;26.67;;;1.20;99.90;;;;;;5112218;28;20031;-61
2022/12/04 08:58:22;;;;;;;49.28;26.13;;;1.20;99.90;;;;;;5111143;28;20036;-62
2022/12/04 09:00:47;;;;;;;47.40;26.33;;;1.30;99.90;;;;;;5111570;28;20035;-63
2022/12/04 09:03:16;;;;;;;49.25;26.45;;;1.30;99.90;;;;;;5112730;28;20066;-61
2022/12/04 09:05:44;;;;;;;48.90;27.70;;;1.40;99.90;;;;;;5112601;28;20493;-62
2022/12/04 09:08:11;;;;;;;43.90;25.50;;;1.40;99.90;;;;;;5112913;28;20039;-61
2022/12/04 09:10:37;;;;;;;44.70;25.38;;;1.40;99.90;;;;;;5112912;28;20127;-61
2022/12/04 09:13:04;;;;;;;45.33;26.40;;;1.50;99.90;;;;;;5111818;28;20102;-62
2022/12/04 09:15:30;;;;;;;50.20;26.73;;;1.50;99.90;;;;;;5112644;28;20462;-61
2022/12/04 09:17:55;;;;;;;41.42;24.10;;;1.50;99.90;;;;;;5112649;28;20074;-62
2022/12/04 09:20:21;;;;;;;49.90;26.73;;;1.50;99.90;;;;;;5112502;28;20039;-62
2022/12/04 09:22:46;;;;;;;45.13;26.25;;;1.60;99.90;;;;;;5112573;28;20044;-62
2022/12/04 09:25:12;;;;;;;44.80;24.77;;;1.60;99.90;;;;;;5112454;28;20074;-62
2022/12/04 09:27:40;;;;;;;44.42;25.83;;;1.60;99.90;;;;;;5091964;28;20052;-63
2022/12/04 09:30:08;;;;;;;48.40;26.33;;;1.60;99.90;;;;;;5092107;28;20114;-62
2022/12/04 09:32:33;;;;;;;44.25;24.80;;;1.60;99.90;;;;;;5074125;28;20028;-62
2022/12/04 09:34:59;;;;;;;42.08;25.38;;;1.70;99.90;;;;;;5091920;28;20046;-62
2022/12/04 09:37:25;;;;;;;44.30;24.90;;;1.70;99.90;;;;;;5101867;28;20036;-63
2022/12/04 09:39:51;;;;;;;45.55;24.35;;;1.70;99.90;;;;;;5112391;28;20092;-63
2022/12/04 09:42:16;;;;;;;43.72;23.15;;;1.80;99.90;;;;;;5111984;28;20051;-63
2022/12/04 09:44:52;;;;;;;40.28;22.95;;;1.80;99.90;;;;;;5112186;28;20048;-62
2022/12/04 09:47:28;;;;;;;39.22;23.23;;;1.90;99.90;;;;;;5077336;28;20055;-63
2022/12/04 09:50:02;;;;;;;40.95;23.70;;;1.90;99.90;;;;;;5094215;28;20143;-62
2022/12/04 09:52:46;;;;;;;42.70;23.65;;;1.90;99.90;;;;;;5111202;28;20366;-63
2022/12/04 09:55:18;;;;;;;40.28;23.05;;;2.00;99.90;;;;;;5111119;28;20039;-62
2022/12/04 09:57:47;;;;;;;39.22;23.08;;;2.00;99.90;;;;;;5093033;28;20554;-61
2022/12/04 10:00:16;;;;;;;37.72;22.35;;;2.00;99.90;;;;;;5112264;28;20036;-61
2022/12/04 10:02:47;;;;;;;38.03;21.50;;;2.10;99.90;;;;;;5112338;28;20036;-63
2022/12/04 10:05:31;;;;;;;33.63;21.10;;;2.10;99.90;;;;;;5094163;28;20486;-63
2022/12/04 10:08:19;;;;;;;36.03;20.38;;;2.20;99.90;;;;;;5112185;28;20039;-62
2022/12/04 10:11:17;;;;;;;34.13;20.52;;;2.20;99.90;;;;;;5111934;28;20046;-62
2022/12/04 10:13:49;;;;;;;38.85;21.88;;;2.30;99.90;;;;;;5112035;28;20035;-62
2022/12/04 10:16:40;;;;;;;35.88;21.70;;;2.30;99.90;;;;;;5112017;28;20441;-63
2022/12/04 10:19:27;;;;;;;38.25;22.42;;;2.30;99.90;;;;;;5112041;28;20067;-62
2022/12/04 10:22:18;;;;;;;37.22;20.48;;;2.30;99.90;;;;;;5111905;28;20122;-62
2022/12/04 10:24:50;;;;;;;35.65;20.02;;;2.30;99.90;;;;;;5094969;28;20121;-61
2022/12/04 10:27:30;;;;;;;35.08;20.27;;;2.30;99.90;;;;;;5107345;28;20028;-61
2022/12/04 10:30:00;;;;;;;;;;;2.30;99.90;;;;;;5113817;28;20047;-61
2022/12/04 10:32:30;;;;;;;37.15;20.10;;;2.30;99.90;;;;;;5114900;28;19920;-62
2022/12/04 10:35:02;;;;;;;36.00;19.13;;;2.30;99.90;;;;;;5097119;28;20036;-60
2022/12/04 10:37:28;;;;;;;36.17;20.02;;;2.30;99.90;;;;;;5115494;28;20499;-61
2022/12/04 10:40:07;;;;;;;34.83;20.58;;;2.30;99.90;;;;;;5115428;28;20047;-60
2022/12/04 10:42:40;;;;;;;33.17;20.40;;;2.30;99.90;;;;;;5115086;28;20131;-61
2022/12/04 10:45:06;;;;;;;34.80;19.90;;;2.40;99.90;;;;;;5115556;28;20050;-61
2022/12/04 10:47:33;;;;;;;32.22;18.88;;;2.40;99.90;;;;;;5115333;28;20036;-61
2022/12/04 10:50:03;;;;;;;32.97;19.52;;;2.40;99.90;;;;;;5115167;28;20043;-61
2022/12/04 10:52:29;;;;;;;34.83;20.27;;;2.40;99.90;;;;;;5115480;28;20150;-61
2022/12/04 10:55:00;;;;;;;32.13;18.50;;;2.50;99.90;;;;;;5114911;28;20161;-61
2022/12/04 10:57:40;;;;;;;30.98;17.95;;;2.40;99.90;;;;;;5114827;28;20517;-61
2022/12/04 11:00:25;;;;;;;27.80;16.17;;;2.50;99.90;;;;;;5112428;28;20165;-61
2022/12/04 11:02:53;;;;;;;26.83;16.80;;;2.50;99.90;;;;;;5114346;28;20072;-61
2022/12/04 11:05:44;;;;;;;27.67;15.73;;;2.50;99.90;;;;;;5114926;28;20087;-60
2022/12/04 11:08:18;;;;;;;;;;;2.60;99.90;;;;;;5115403;28;20455;-61
2022/12/04 11:10:44;;;;;;;26.85;15.88;;;2.50;99.90;;;;;;5114669;28;19994;-61
2022/12/04 11:13:09;;;;;;;25.88;15.00;;;2.60;99.90;;;;;;5114475;28;20505;-61
2022/12/04 11:15:45;;;;;;;24.80;15.07;;;2.50;99.90;;;;;;5114629;28;20039;-61
2022/12/04 11:18:28;;;;;;;26.20;15.52;;;2.60;99.90;;;;;;5114754;28;20063;-62
2022/12/04 11:21:02;;;;;;;27.60;15.27;;;2.60;99.90;;;;;;5114748;28;20044;-61
2022/12/04 11:23:32;;;;;;;26.02;15.93;;;2.60;99.90;;;;;;5114368;28;20043;-61
2022/12/04 11:25:59;;;;;;;23.38;14.48;;;2.70;99.90;;;;;;5114152;28;20100;-61
2022/12/04 11:28:29;;;;;;;23.30;14.18;;;2.60;99.90;;;;;;5114601;28;20385;-61
2022/12/04 11:30:58;;;;;;;21.35;13.23;;;2.60;99.90;;;;;;5114376;28;20424;-61
2022/12/04 11:33:33;;;;;;;23.20;13.57;;;2.60;99.90;;;;;;5114212;28;20039;-60
2022/12/04 11:36:04;;;;;;;20.58;13.32;;;2.60;99.90;;;;;;5113783;28;20036;-61
2022/12/04 11:38:33;;;;;;;20.13;13.95;;;2.60;99.90;;;;;;5114123;28;20477;-61
2022/12/04 11:41:02;;;;;;;21.67;13.43;;;2.70;99.90;;;;;;5114076;28;20379;-61
2022/12/04 11:43:31;;;;;;;22.10;13.88;;;2.60;99.90;;;;;;5095624;28;20413;-61
2022/12/04 11:45:59;;;;;;;;;;;2.70;99.90;;;;;;5114602;28;20043;-60
2022/12/04 11:48:25;;;;;;;23.70;13.50;;;2.60;99.90;;;;;;5114169;28;19916;-60
2022/12/04 11:51:07;;;;;;;22.50;13.82;;;2.70;99.90;;;;;;5113764;28;20039;-60
2022/12/04 11:53:35;;;;;;;22.77;14.82;;;2.60;99.90;;;;;;5113903;28;20043;-60
2022/12/04 11:56:15;;;;;;;22.65;13.10;;;2.60;99.90;;;;;;5113788;28;20485;-61
2022/12/04 11:58:49;;;;;;;25.15;14.57;;;2.60;99.90;;;;;;5113873;28;20034;-61
2022/12/04 12:01:53;;;;;;;25.40;14.82;;;2.60;99.90;;;;;;5113880;28;20040;-61
2022/12/04 12:04:25;;;;;;;25.85;14.98;;;2.70;99.90;;;;;;5113861;28;20051;-60
2022/12/04 12:06:53;;;;;;;24.42;15.40;;;2.70;99.90;;;;;;5113727;28;20047;-60
2022/12/04 12:09:33;;;;;;;24.50;15.52;;;2.70;99.90;;;;;;5113410;28;20512;-61
2022/12/04 12:12:05;;;;;;;22.40;13.90;;;2.70;99.90;;;;;;5113119;28;20058;-61
2022/12/04 12:14:41;;;;;;;22.10;13.82;;;2.70;99.90;;;;;;5113746;28;20446;-60
2022/12/04 12:17:12;;;;;;;21.50;13.27;;;2.70;99.90;;;;;;5113454;28;20042;-61
2022/12/04 12:20:03;;;;;;;23.83;13.85;;;2.70;99.90;;;;;;5113639;28;20041;-61
2022/12/04 12:22:47;;;;;;;23.08;14.13;;;2.70;99.90;;;;;;5113411;28;20067;-60
2022/12/04 12:25:25;;;;;;;22.05;14.23;;;2.70;99.90;;;;;;5113586;28;20476;-60
2022/12/04 12:27:59;;;;;;;19.60;12.93;;;2.80;99.90;;;;;;5113390;28;20040;-60
2022/12/04 12:30:27;;;;;;;22.85;13.52;;;2.70;99.90;;;;;;5113164;28;20043;-60
2022/12/04 12:33:27;;;;;;;24.63;14.75;;;2.80;99.90;;;;;;5113170;28;20044;-60
2022/12/04 12:36:05;;;;;;;24.75;15.48;;;2.70;99.90;;;;;;5113256;28;20046;-61
2022/12/04 12:38:38;;;;;;;24.15;15.02;;;2.80;99.90;;;;;;5112835;28;20397;-60
2022/12/04 12:41:12;;;;;;;28.67;16.10;;;2.80;99.90;;;;;;5112735;28;20114;-61
2022/12/04 12:43:39;;;;;;;25.33;14.93;;;2.80;99.90;;;;;;5112694;28;20374;-61
2022/12/04 12:46:26;;;;;;;25.42;16.48;;;2.80;99.90;;;;;;5112514;28;20496;-61
2022/12/04 12:49:28;;;;;;;25.38;15.32;;;2.80;99.90;;;;;;5112790;28;20043;-60
2022/12/04 12:52:16;;;;;;;29.98;16.50;;;2.70;99.90;;;;;;5010202;28;20401;-60
2022/12/04 12:54:54;;;;;;;26.40;16.25;;;2.80;99.90;;;;;;5010430;28;20056;-61
2022/12/04 12:57:36;;;;;;;25.98;16.08;;;2.80;99.90;;;;;;5009224;28;20041;-61
2022/12/04 13:00:21;;;;;;;26.23;15.32;;;2.80;99.90;;;;;;5008163;28;20045;-60
2022/12/04 13:03:00;;;;;;;26.75;15.82;;;2.80;99.90;;;;;;5009108;28;20042;-60
2022/12/04 13:05:35;;;;;;;22.50;14.57;;;2.80;99.90;;;;;;5010172;28;20499;-60
2022/12/04 13:08:24;;;;;;;26.48;16.05;;;2.80;99.90;;;;;;5009971;28;20616;-61